KAKQ/AKQ METAR and TAF weather

Enter ICAO airport designator
Station Type Date Time Source
KAKQ METAR 2020/08/14 15:54 UTC NOAA

KAKQ 141554Z AUTO VRB05KT 10SM SCT018 BKN024 BKN048 27/23 A2995 RMK AO2 SLP139 T02720228


Station Type Date Time Source
KAKQ Decoded METAR 2020/08/14 15:54 UTC NOAA

WAKEFIELD MUNICIPAL AIRPOR, VA, United States (KAKQ) 36-59N 077-00W 33M
Aug 14, 2020 - 11:54 AM EDT / 2020.08.14 1554 UTC
Wind: Variable at 6 MPH (5 KT):0
Visibility: 10 mile(s):0
Sky conditions: mostly cloudy
Temperature: 81.0 F (27.2 C)
Dew Point: 73.0 F (22.8 C)
Relative Humidity: 76%
Pressure (altimeter): 29.95 in. Hg (1014 hPa)
ob: KAKQ 141554Z AUTO VRB05KT 10SM SCT018 BKN024 BKN048 27/23 A2995 RMK AO2 SLP139 T02720228
cycle: 16

Station Type Date Time Source
KAKQ TAF UTC NOAA

Error!

Example: see airport list